Flight Track Log - Related Links

Times and Time Zones

All times are in EDT time to prevent confusion due to time zone crossing. See the AMF405 flight status page for this flight to view local times or setup timezone preferences in your user account.


Time Position Orientation Groundspeed Altitude Reporting Facility
EDT Latitude Longitude Course Direction KTS MPH feet Rate Location/Type
Tue 07:33:51 AM 45.5953 -122.6250 145° Southeast 98 113 600  Level Seattle Center
Tue 07:34:57 AM 45.5856 -122.6631 250° West 114 131 2,000 1,181 Climbing Seattle Center
Tue 07:35:58 AM 45.5614 -122.6944 222° Southwest 123 142 3,100 1,041 Climbing Seattle Center
Tue 07:36:58 AM 45.5333 -122.6628 142° Southeast 142 163 4,100 1,041 Climbing Seattle Center
Tue 07:37:59 AM 45.5042 -122.6253 138° Southeast 147 169 5,200 1,180 Climbing Seattle Center
Tue 07:39:00 AM 45.4871 -122.2360 145° Southeast  Level Estimated
Tue 07:39:00 AM 45.4758 -122.5814 133° Southeast 140 161 6,500  Level Seattle Center
Tue 07:40:06 AM 45.4517 -122.5431 132° Southeast 137 158 7,600 1,000 Climbing Seattle Center
Tue 07:41:06 AM 45.4236 -122.5092 140° Southeast 133 153 8,600 1,000 Climbing Seattle Center
Tue 07:42:06 AM 45.3928 -122.4722 140° Southeast 141 162 9,600 1,000 Climbing Seattle Center
Tue 07:43:06 AM 45.3606 -122.4342 140° Southeast 149 171 10,600 1,000 Climbing Seattle Center
Tue 07:44:06 AM 45.3306 -122.3947 137° Southeast 147 169 11,600 1,050 Climbing Seattle Center
Tue 07:45:06 AM 45.3044 -122.3525 131° Southeast 144 166 12,700 744 Climbing Seattle Center
Tue 07:46:07 AM 45.2756 -122.3131 136° Southeast 143 165 13,100 198 Climbing Seattle Center
Tue 07:47:07 AM 45.2403 -122.2647 136° Southeast 163 188 13,100  Level Seattle Center
Tue 07:48:07 AM 45.2092 -122.2164 132° Southeast 167 192 13,100  Level Seattle Center
Tue 07:49:07 AM 45.1972 -122.1511 105° East 173 199 13,100  Level Seattle Center
Tue 07:50:07 AM 45.1775 -122.0897 114° Southeast 172 198 13,100  Level Seattle Center
Tue 07:51:07 AM 45.1583 -122.0286 114° Southeast 171 197 13,100  Level Seattle Center
Tue 07:52:07 AM 45.1381 -121.9672 115° Southeast 172 198 13,100 -50 Level Seattle Center
Tue 07:53:07 AM 45.1244 -121.9025 107° East 178 205 13,000 -50 Descending Seattle Center
Tue 07:54:08 AM 45.1089 -121.8344 108° East 179 206 13,000  Level Seattle Center
Tue 07:55:08 AM 45.0961 -121.7683 105° East 177 204 13,000  Level Seattle Center
Tue 07:56:08 AM 45.0811 -121.7000 107° East 181 208 13,000  Level Seattle Center
Tue 07:57:08 AM 45.0697 -121.6331 104° East 178 205 13,000  Level Seattle Center
Tue 07:58:08 AM 45.0586 -121.5656 103° East 178 205 13,000  Level Seattle Center
Tue 07:59:08 AM 45.0469 -121.4975 104° East 178 205 13,000  Level Seattle Center
Tue 08:00:08 AM 45.0394 -121.4297 99° East 177 204 13,000  Level Seattle Center
Tue 08:01:09 AM 45.0208 -121.3694 114° Southeast 171 197 13,000  Level Seattle Center
Tue 08:02:09 AM 45.0067 -121.3025 107° East 176 203 13,000  Level Seattle Center
Tue 08:03:09 AM 44.9922 -121.2383 108° East 174 200 13,000  Level Seattle Center
Tue 08:04:09 AM 44.9775 -121.1744 108° East 172 198 13,000  Level Seattle Center
Tue 08:05:09 AM 44.9653 -121.1097 105° East 172 198 13,000  Level Seattle Center
Tue 08:06:10 AM 44.9506 -121.0464 108° East 171 197 13,000  Level Seattle Center
Tue 08:07:10 AM 44.9361 -120.9822 108° East 173 199 13,000  Level Seattle Center
Tue 08:08:10 AM 44.9214 -120.9167 108° East 176 203 13,000  Level Seattle Center
Tue 08:09:10 AM 44.9067 -120.8506 107° East 177 204 13,000  Level Seattle Center
Tue 08:10:10 AM 44.8925 -120.7836 107° East 178 205 13,000  Level Seattle Center
Tue 08:11:11 AM 44.8778 -120.7192 108° East 175 201 13,000  Level Seattle Center
Tue 08:12:11 AM 44.8631 -120.6533 107° East 177 204 13,000  Level Seattle Center
Tue 08:13:11 AM 44.8483 -120.5886 108° East 175 201 13,000  Level Seattle Center
Tue 08:14:11 AM 44.8322 -120.5117 106° East 172 198 13,000  Level Seattle Center
Tue 08:15:11 AM 44.8178 -120.4506 108° East 168 193 13,000  Level Seattle Center
Tue 08:16:12 AM 44.8036 -120.3889 108° East 166 191 13,000  Level Seattle Center
Tue 08:17:12 AM 44.7897 -120.3258 107° East 168 193 13,000  Level Seattle Center
Tue 08:18:12 AM 44.7744 -120.2597 108° East 175 201 13,000  Level Seattle Center
Tue 08:19:12 AM 44.7600 -120.1914 107° East 181 208 13,000  Level Seattle Center
Tue 08:20:13 AM 44.7439 -120.1247 109° East 182 209 13,000  Level Seattle Center
Tue 08:21:13 AM 44.7294 -120.0567 107° East 183 211 13,000  Level Seattle Center
Tue 08:22:13 AM 44.7142 -119.9903 108° East 182 209 13,000  Level Seattle Center
Tue 08:23:14 AM 44.6981 -119.9228 109° East 182 209 13,000  Level Seattle Center
Tue 08:24:14 AM 44.6822 -119.8550 108° East 183 211 13,000  Level Seattle Center
Tue 08:25:14 AM 44.6672 -119.7856 107° East 185 213 13,000  Level Seattle Center
Tue 08:26:14 AM 44.6511 -119.7167 108° East 187 215 13,000  Level Seattle Center
Tue 08:27:14 AM 44.6325 -119.6489 111° Southeast 185 213 13,000  Level Seattle Center
Tue 08:28:15 AM 44.6119 -119.5833 114° Southeast 184 212 13,000  Level Seattle Center
Tue 08:29:15 AM 44.5936 -119.5172 111° Southeast 183 211 13,000  Level Seattle Center
Tue 08:30:15 AM 44.5733 -119.4497 113° Southeast 187 215 13,000  Level Seattle Center
Tue 08:31:15 AM 44.5539 -119.3828 112° Southeast 186 214 13,000  Level Seattle Center
Tue 08:32:16 AM 44.5339 -119.3147 112° Southeast 189 217 13,000  Level Seattle Center
Tue 08:33:16 AM 44.5136 -119.2456 112° Southeast 192 221 13,000  Level Seattle Center
Tue 08:34:16 AM 44.4939 -119.1775 112° Southeast 189 217 13,000  Level Seattle Center
Tue 08:35:17 AM 44.4728 -119.1103 114° Southeast 189 217 13,000  Level Seattle Center
Tue 08:36:17 AM 44.4528 -119.0417 112° Southeast 190 219 13,000  Level Seattle Center
Tue 08:37:17 AM 44.4325 -118.9750 113° Southeast 188 216 13,000  Level Seattle Center
Tue 08:38:17 AM 44.4139 -118.9072 111° Southeast 187 215 13,000  Level Seattle Center
Tue 08:39:18 AM 44.3914 -118.8403 115° Southeast 189 217 13,000  Level Seattle Center
Tue 08:40:10 AM 44.3733 -118.7719 110° East 188 216 13,000  Level Salt Lake Center
Tue 08:41:10 AM 44.3519 -118.7047 114° Southeast 189 217 13,000  Level Salt Lake Center
Tue 08:42:11 AM 44.3314 -118.6372 113° Southeast 190 219 13,000  Level Salt Lake Center
Tue 08:43:19 AM 44.3081 -118.5564 112° Southeast 188 216 13,000  Level Seattle Center
Tue 08:44:19 AM 44.2869 -118.4889 114° Southeast 190 219 13,000  Level Seattle Center
Tue 08:45:19 AM 44.2664 -118.4208 113° Southeast 191 220 13,000  Level Seattle Center
Tue 08:46:20 AM 44.2436 -118.3525 115° Southeast 193 222 13,000  Level Seattle Center
Tue 08:47:20 AM 44.2233 -118.2833 112° Southeast 194 223 13,000  Level Seattle Center
Tue 08:48:20 AM 44.2025 -118.2167 114° Southeast 190 219 13,000 -50 Level Seattle Center
Tue 08:49:21 AM 44.1822 -118.1475 112° Southeast 185 213 12,900 -50 Descending Seattle Center
Tue 08:50:21 AM 44.1622 -118.0844 114° Southeast 185 213 12,900  Level Seattle Center
Tue 08:51:21 AM 44.1431 -118.0228 113° Southeast 183 211 12,900 51 Level Seattle Center
Tue 08:52:18 AM 44.1231 -117.9589 114° Southeast 187 215 13,000 105 Climbing Salt Lake Center

Login

Don't have an account? Register now (free) for customized features, flight alerts, and more!